sensor_id;sensor_type;location;lat;lon;timestamp;temperature;humidity
28947;DHT22;16052;50.930;5.326;2023-03-03T00:01:43;6.10;94.60
28947;DHT22;16052;50.930;5.326;2023-03-03T00:04:09;6.00;95.60
28947;DHT22;16052;50.930;5.326;2023-03-03T00:06:34;5.90;96.20
28947;DHT22;16052;50.930;5.326;2023-03-03T00:09:00;5.80;97.30
28947;DHT22;16052;50.930;5.326;2023-03-03T00:11:26;5.80;97.90
28947;DHT22;16052;50.930;5.326;2023-03-03T00:13:54;5.70;99.10
28947;DHT22;16052;50.930;5.326;2023-03-03T00:16:24;5.80;98.80
28947;DHT22;16052;50.930;5.326;2023-03-03T00:18:50;5.80;97.80
28947;DHT22;16052;50.930;5.326;2023-03-03T00:21:34;5.70;98.50
28947;DHT22;16052;50.930;5.326;2023-03-03T00:26:41;5.70;97.60
28947;DHT22;16052;50.930;5.326;2023-03-03T00:29:34;5.70;99.30
28947;DHT22;16052;50.930;5.326;2023-03-03T00:34:48;5.80;97.60
28947;DHT22;16052;50.930;5.326;2023-03-03T00:37:31;5.90;95.50
28947;DHT22;16052;50.930;5.326;2023-03-03T00:40:22;5.80;96.40
28947;DHT22;16052;50.930;5.326;2023-03-03T00:42:57;5.80;95.80
28947;DHT22;16052;50.930;5.326;2023-03-03T00:45:30;5.80;94.40
28947;DHT22;16052;50.930;5.326;2023-03-03T00:47:56;5.80;95.00
28947;DHT22;16052;50.930;5.326;2023-03-03T00:50:33;5.80;95.40
28947;DHT22;16052;50.930;5.326;2023-03-03T00:53:13;5.80;94.80
28947;DHT22;16052;50.930;5.326;2023-03-03T00:55:42;5.70;94.40
28947;DHT22;16052;50.930;5.326;2023-03-03T00:58:08;5.70;95.90
28947;DHT22;16052;50.930;5.326;2023-03-03T01:00:35;5.70;96.50
28947;DHT22;16052;50.930;5.326;2023-03-03T01:03:03;5.70;95.50
28947;DHT22;16052;50.930;5.326;2023-03-03T01:05:29;5.70;94.70
28947;DHT22;16052;50.930;5.326;2023-03-03T01:07:55;5.60;95.80
28947;DHT22;16052;50.930;5.326;2023-03-03T01:10:21;5.60;97.00
28947;DHT22;16052;50.930;5.326;2023-03-03T01:12:47;5.40;98.10
28947;DHT22;16052;50.930;5.326;2023-03-03T01:15:14;5.50;97.20
28947;DHT22;16052;50.930;5.326;2023-03-03T01:17:40;5.50;97.00
28947;DHT22;16052;50.930;5.326;2023-03-03T01:20:08;5.50;97.20
28947;DHT22;16052;50.930;5.326;2023-03-03T01:22:35;5.50;97.90
28947;DHT22;16052;50.930;5.326;2023-03-03T01:25:01;5.60;97.10
28947;DHT22;16052;50.930;5.326;2023-03-03T01:27:29;5.60;96.00
28947;DHT22;16052;50.930;5.326;2023-03-03T01:29:55;5.40;98.20
28947;DHT22;16052;50.930;5.326;2023-03-03T01:32:22;5.30;99.20
28947;DHT22;16052;50.930;5.326;2023-03-03T01:34:48;5.30;99.90
28947;DHT22;16052;50.930;5.326;2023-03-03T01:37:13;5.40;98.80
28947;DHT22;16052;50.930;5.326;2023-03-03T01:39:39;5.40;98.30
28947;DHT22;16052;50.930;5.326;2023-03-03T01:42:06;5.30;99.90
28947;DHT22;16052;50.930;5.326;2023-03-03T01:44:32;5.40;99.90
28947;DHT22;16052;50.930;5.326;2023-03-03T01:47:37;5.30;99.90
28947;DHT22;16052;50.930;5.326;2023-03-03T01:50:03;5.20;99.90
28947;DHT22;16052;50.930;5.326;2023-03-03T01:52:37;5.00;99.90
28947;DHT22;16052;50.930;5.326;2023-03-03T01:55:14;5.00;99.90
28947;DHT22;16052;50.930;5.326;2023-03-03T01:57:46;4.90;99.90
28947;DHT22;16052;50.930;5.326;2023-03-03T02:00:13;4.70;99.90
28947;DHT22;16052;50.930;5.326;2023-03-03T02:02:40;4.70;99.90
28947;DHT22;16052;50.930;5.326;2023-03-03T02:05:07;4.80;99.90
28947;DHT22;16052;50.930;5.326;2023-03-03T02:07:33;4.80;99.90
28947;DHT22;16052;50.930;5.326;2023-03-03T02:12:35;4.70;99.90
28947;DHT22;16052;50.930;5.326;2023-03-03T02:15:01;4.70;99.90
28947;DHT22;16052;50.930;5.326;2023-03-03T02:17:26;4.80;99.90
28947;DHT22;16052;50.930;5.326;2023-03-03T02:22:26;4.90;99.90
28947;DHT22;16052;50.930;5.326;2023-03-03T02:24:59;4.80;99.90
28947;DHT22;16052;50.930;5.326;2023-03-03T02:27:27;4.90;99.90
28947;DHT22;16052;50.930;5.326;2023-03-03T02:29:54;4.80;99.90
28947;DHT22;16052;50.930;5.326;2023-03-03T02:32:20;4.80;99.90
28947;DHT22;16052;50.930;5.326;2023-03-03T02:34:51;4.90;99.90
28947;DHT22;16052;50.930;5.326;2023-03-03T02:37:18;4.80;99.90
28947;DHT22;16052;50.930;5.326;2023-03-03T02:39:44;4.70;99.90
28947;DHT22;16052;50.930;5.326;2023-03-03T02:42:22;4.60;99.90
28947;DHT22;16052;50.930;5.326;2023-03-03T02:44:50;4.60;99.90
28947;DHT22;16052;50.930;5.326;2023-03-03T02:47:15;4.70;99.90
28947;DHT22;16052;50.930;5.326;2023-03-03T02:49:41;4.70;99.90
28947;DHT22;16052;50.930;5.326;2023-03-03T02:52:10;4.70;99.90
28947;DHT22;16052;50.930;5.326;2023-03-03T02:54:36;4.80;99.90
28947;DHT22;16052;50.930;5.326;2023-03-03T02:57:03;4.80;99.90
28947;DHT22;16052;50.930;5.326;2023-03-03T02:59:30;5.00;99.90
28947;DHT22;16052;50.930;5.326;2023-03-03T03:01:56;5.00;99.90
28947;DHT22;16052;50.930;5.326;2023-03-03T03:04:26;4.90;99.90
28947;DHT22;16052;50.930;5.326;2023-03-03T03:06:54;4.80;99.90
28947;DHT22;16052;50.930;5.326;2023-03-03T03:09:22;4.70;99.90
28947;DHT22;16052;50.930;5.326;2023-03-03T03:11:48;4.70;99.90
28947;DHT22;16052;50.930;5.326;2023-03-03T03:14:13;4.70;99.90
28947;DHT22;16052;50.930;5.326;2023-03-03T03:16:39;4.70;99.90
28947;DHT22;16052;50.930;5.326;2023-03-03T03:19:06;4.60;99.90
28947;DHT22;16052;50.930;5.326;2023-03-03T03:21:32;4.70;99.90
28947;DHT22;16052;50.930;5.326;2023-03-03T03:23:58;4.70;99.90
28947;DHT22;16052;50.930;5.326;2023-03-03T03:26:23;4.80;99.90
28947;DHT22;16052;50.930;5.326;2023-03-03T03:28:50;4.70;99.90
28947;DHT22;16052;50.930;5.326;2023-03-03T03:31:17;4.70;99.90
28947;DHT22;16052;50.930;5.326;2023-03-03T03:33:43;4.70;99.90
28947;DHT22;16052;50.930;5.326;2023-03-03T03:36:09;4.70;99.90
28947;DHT22;16052;50.930;5.326;2023-03-03T03:38:35;4.80;99.90
28947;DHT22;16052;50.930;5.326;2023-03-03T03:41:02;4.80;99.90
28947;DHT22;16052;50.930;5.326;2023-03-03T03:43:28;4.60;99.90
28947;DHT22;16052;50.930;5.326;2023-03-03T03:45:54;4.50;99.90
28947;DHT22;16052;50.930;5.326;2023-03-03T03:48:20;4.50;99.90
28947;DHT22;16052;50.930;5.326;2023-03-03T03:50:46;4.30;99.90
28947;DHT22;16052;50.930;5.326;2023-03-03T03:53:12;4.30;99.90
28947;DHT22;16052;50.930;5.326;2023-03-03T03:55:38;4.20;99.90
28947;DHT22;16052;50.930;5.326;2023-03-03T03:58:04;4.20;99.90
28947;DHT22;16052;50.930;5.326;2023-03-03T04:00:29;4.30;99.90
28947;DHT22;16052;50.930;5.326;2023-03-03T04:02:55;4.40;99.90
28947;DHT22;16052;50.930;5.326;2023-03-03T04:05:21;4.50;99.90
28947;DHT22;16052;50.930;5.326;2023-03-03T04:07:46;4.40;99.90
28947;DHT22;16052;50.930;5.326;2023-03-03T04:10:12;4.40;99.90
28947;DHT22;16052;50.930;5.326;2023-03-03T04:12:38;4.40;99.90
28947;DHT22;16052;50.930;5.326;2023-03-03T04:15:06;4.20;99.90
28947;DHT22;16052;50.930;5.326;2023-03-03T04:17:32;4.10;99.90
28947;DHT22;16052;50.930;5.326;2023-03-03T04:19:58;4.10;99.90
28947;DHT22;16052;50.930;5.326;2023-03-03T04:22:24;4.20;99.90
28947;DHT22;16052;50.930;5.326;2023-03-03T04:24:50;4.20;99.90
28947;DHT22;16052;50.930;5.326;2023-03-03T04:27:15;4.30;99.90
28947;DHT22;16052;50.930;5.326;2023-03-03T04:29:41;4.30;99.90
28947;DHT22;16052;50.930;5.326;2023-03-03T04:32:07;4.40;99.90
28947;DHT22;16052;50.930;5.326;2023-03-03T04:34:33;4.40;99.90
28947;DHT22;16052;50.930;5.326;2023-03-03T04:36:59;4.40;99.90
28947;DHT22;16052;50.930;5.326;2023-03-03T04:39:25;4.40;99.90
28947;DHT22;16052;50.930;5.326;2023-03-03T04:41:51;4.30;99.90
28947;DHT22;16052;50.930;5.326;2023-03-03T04:44:17;4.30;99.90
28947;DHT22;16052;50.930;5.326;2023-03-03T04:46:43;4.30;99.90
28947;DHT22;16052;50.930;5.326;2023-03-03T04:49:08;4.20;99.90
28947;DHT22;16052;50.930;5.326;2023-03-03T04:51:34;4.10;99.90
28947;DHT22;16052;50.930;5.326;2023-03-03T04:54:00;4.00;99.90
28947;DHT22;16052;50.930;5.326;2023-03-03T04:56:26;4.00;99.90
28947;DHT22;16052;50.930;5.326;2023-03-03T04:58:53;4.00;99.90
28947;DHT22;16052;50.930;5.326;2023-03-03T05:01:18;4.10;99.90
28947;DHT22;16052;50.930;5.326;2023-03-03T05:03:44;4.00;99.90
28947;DHT22;16052;50.930;5.326;2023-03-03T05:06:10;4.00;99.90
28947;DHT22;16052;50.930;5.326;2023-03-03T05:08:36;3.90;99.90
28947;DHT22;16052;50.930;5.326;2023-03-03T05:11:02;3.80;99.90
28947;DHT22;16052;50.930;5.326;2023-03-03T05:13:29;3.90;99.90
28947;DHT22;16052;50.930;5.326;2023-03-03T05:15:56;3.90;99.90
28947;DHT22;16052;50.930;5.326;2023-03-03T05:18:25;3.90;99.90
28947;DHT22;16052;50.930;5.326;2023-03-03T05:20:51;3.90;99.90
28947;DHT22;16052;50.930;5.326;2023-03-03T05:23:17;4.00;99.90
28947;DHT22;16052;50.930;5.326;2023-03-03T05:25:43;4.20;99.90
28947;DHT22;16052;50.930;5.326;2023-03-03T05:28:10;4.20;99.90
28947;DHT22;16052;50.930;5.326;2023-03-03T05:30:36;4.20;99.90
28947;DHT22;16052;50.930;5.326;2023-03-03T05:33:03;4.30;99.90
28947;DHT22;16052;50.930;5.326;2023-03-03T05:35:29;4.40;99.90
28947;DHT22;16052;50.930;5.326;2023-03-03T05:37:55;4.50;99.90
28947;DHT22;16052;50.930;5.326;2023-03-03T05:40:23;4.60;99.90
28947;DHT22;16052;50.930;5.326;2023-03-03T05:42:48;4.80;99.90
28947;DHT22;16052;50.930;5.326;2023-03-03T05:45:14;4.80;99.90
28947;DHT22;16052;50.930;5.326;2023-03-03T05:47:40;4.60;99.90
28947;DHT22;16052;50.930;5.326;2023-03-03T05:50:06;4.20;99.90
28947;DHT22;16052;50.930;5.326;2023-03-03T05:52:31;4.20;99.90
28947;DHT22;16052;50.930;5.326;2023-03-03T05:54:57;4.20;99.90
28947;DHT22;16052;50.930;5.326;2023-03-03T05:57:22;4.10;99.90
28947;DHT22;16052;50.930;5.326;2023-03-03T05:59:48;4.10;99.90
28947;DHT22;16052;50.930;5.326;2023-03-03T06:02:14;4.10;99.90
28947;DHT22;16052;50.930;5.326;2023-03-03T06:04:39;4.00;99.90
28947;DHT22;16052;50.930;5.326;2023-03-03T06:07:05;3.80;99.90
28947;DHT22;16052;50.930;5.326;2023-03-03T06:09:32;3.70;99.90
28947;DHT22;16052;50.930;5.326;2023-03-03T06:11:57;3.80;99.90
28947;DHT22;16052;50.930;5.326;2023-03-03T06:14:23;3.90;99.90
28947;DHT22;16052;50.930;5.326;2023-03-03T06:16:49;4.00;99.90
28947;DHT22;16052;50.930;5.326;2023-03-03T06:19:15;4.00;99.90
28947;DHT22;16052;50.930;5.326;2023-03-03T06:21:41;4.00;99.90
28947;DHT22;16052;50.930;5.326;2023-03-03T06:24:07;4.10;99.90
28947;DHT22;16052;50.930;5.326;2023-03-03T06:26:33;4.10;99.90
28947;DHT22;16052;50.930;5.326;2023-03-03T06:28:59;4.10;99.90
28947;DHT22;16052;50.930;5.326;2023-03-03T06:31:26;4.00;99.90
28947;DHT22;16052;50.930;5.326;2023-03-03T06:33:52;4.10;99.90
28947;DHT22;16052;50.930;5.326;2023-03-03T06:36:19;4.10;99.90
28947;DHT22;16052;50.930;5.326;2023-03-03T06:38:45;4.00;99.90
28947;DHT22;16052;50.930;5.326;2023-03-03T06:41:11;3.90;99.90
28947;DHT22;16052;50.930;5.326;2023-03-03T06:43:37;3.80;99.90
28947;DHT22;16052;50.930;5.326;2023-03-03T06:46:03;3.70;99.90
28947;DHT22;16052;50.930;5.326;2023-03-03T06:48:30;3.80;99.90
28947;DHT22;16052;50.930;5.326;2023-03-03T06:50:57;4.00;99.90
28947;DHT22;16052;50.930;5.326;2023-03-03T06:53:24;4.20;99.90
28947;DHT22;16052;50.930;5.326;2023-03-03T06:55:50;4.20;99.90
28947;DHT22;16052;50.930;5.326;2023-03-03T06:58:19;4.30;99.90
28947;DHT22;16052;50.930;5.326;2023-03-03T07:00:59;4.20;99.90
28947;DHT22;16052;50.930;5.326;2023-03-03T07:03:31;4.20;99.90
28947;DHT22;16052;50.930;5.326;2023-03-03T07:05:58;4.20;99.90
28947;DHT22;16052;50.930;5.326;2023-03-03T07:08:25;4.20;99.90
28947;DHT22;16052;50.930;5.326;2023-03-03T07:10:54;4.20;99.90
28947;DHT22;16052;50.930;5.326;2023-03-03T07:13:22;4.30;99.90
28947;DHT22;16052;50.930;5.326;2023-03-03T07:15:50;4.20;99.90
28947;DHT22;16052;50.930;5.326;2023-03-03T07:23:39;3.90;99.90
28947;DHT22;16052;50.930;5.326;2023-03-03T07:26:17;3.90;99.90
28947;DHT22;16052;50.930;5.326;2023-03-03T07:28:51;3.90;99.90
28947;DHT22;16052;50.930;5.326;2023-03-03T07:31:28;4.00;99.90
28947;DHT22;16052;50.930;5.326;2023-03-03T07:33:54;4.00;99.90
28947;DHT22;16052;50.930;5.326;2023-03-03T07:36:29;3.90;99.90
28947;DHT22;16052;50.930;5.326;2023-03-03T07:39:00;3.70;99.90
28947;DHT22;16052;50.930;5.326;2023-03-03T07:41:27;3.90;99.90
28947;DHT22;16052;50.930;5.326;2023-03-03T07:44:11;3.80;99.90
28947;DHT22;16052;50.930;5.326;2023-03-03T07:46:43;3.70;99.90
28947;DHT22;16052;50.930;5.326;2023-03-03T07:49:23;3.70;99.90
28947;DHT22;16052;50.930;5.326;2023-03-03T07:51:55;3.70;99.90
28947;DHT22;16052;50.930;5.326;2023-03-03T07:54:37;3.70;99.90
28947;DHT22;16052;50.930;5.326;2023-03-03T07:57:53;3.60;99.90
28947;DHT22;16052;50.930;5.326;2023-03-03T08:02:56;3.70;99.90
28947;DHT22;16052;50.930;5.326;2023-03-03T08:05:26;3.70;99.90
28947;DHT22;16052;50.930;5.326;2023-03-03T08:07:53;3.70;99.90
28947;DHT22;16052;50.930;5.326;2023-03-03T08:10:49;3.70;99.90
28947;DHT22;16052;50.930;5.326;2023-03-03T08:15:51;3.70;99.90
28947;DHT22;16052;50.930;5.326;2023-03-03T08:18:43;3.70;99.90
28947;DHT22;16052;50.930;5.326;2023-03-03T08:21:12;3.90;99.90
28947;DHT22;16052;50.930;5.326;2023-03-03T08:23:38;3.80;99.90
28947;DHT22;16052;50.930;5.326;2023-03-03T08:26:04;3.90;99.90
28947;DHT22;16052;50.930;5.326;2023-03-03T08:28:30;3.70;99.90
28947;DHT22;16052;50.930;5.326;2023-03-03T08:30:55;3.70;99.90
28947;DHT22;16052;50.930;5.326;2023-03-03T08:33:21;3.50;99.90
28947;DHT22;16052;50.930;5.326;2023-03-03T08:35:47;3.60;99.90
28947;DHT22;16052;50.930;5.326;2023-03-03T08:38:16;3.70;99.90
28947;DHT22;16052;50.930;5.326;2023-03-03T08:40:43;3.80;99.90
28947;DHT22;16052;50.930;5.326;2023-03-03T08:43:09;3.90;99.90
28947;DHT22;16052;50.930;5.326;2023-03-03T08:45:36;4.10;99.90
28947;DHT22;16052;50.930;5.326;2023-03-03T08:48:01;4.00;99.90
28947;DHT22;16052;50.930;5.326;2023-03-03T08:50:28;3.90;99.90
28947;DHT22;16052;50.930;5.326;2023-03-03T08:52:54;3.90;99.90
28947;DHT22;16052;50.930;5.326;2023-03-03T08:55:20;3.80;99.90
28947;DHT22;16052;50.930;5.326;2023-03-03T08:57:46;4.00;99.90
28947;DHT22;16052;50.930;5.326;2023-03-03T09:00:14;4.20;99.90
28947;DHT22;16052;50.930;5.326;2023-03-03T09:02:40;4.10;99.90
28947;DHT22;16052;50.930;5.326;2023-03-03T09:05:06;4.10;99.90
28947;DHT22;16052;50.930;5.326;2023-03-03T09:07:32;4.10;99.90
28947;DHT22;16052;50.930;5.326;2023-03-03T09:09:58;4.10;99.90
28947;DHT22;16052;50.930;5.326;2023-03-03T09:12:34;4.10;99.90
28947;DHT22;16052;50.930;5.326;2023-03-03T09:17:43;4.20;99.90
28947;DHT22;16052;50.930;5.326;2023-03-03T09:23:40;4.30;99.90
28947;DHT22;16052;50.930;5.326;2023-03-03T09:28:47;4.10;99.90
28947;DHT22;16052;50.930;5.326;2023-03-03T09:37:10;4.00;99.90
28947;DHT22;16052;50.930;5.326;2023-03-03T09:39:39;4.00;99.90
28947;DHT22;16052;50.930;5.326;2023-03-03T10:01:06;4.20;99.90
28947;DHT22;16052;50.930;5.326;2023-03-03T10:03:40;4.30;99.90
28947;DHT22;16052;50.930;5.326;2023-03-03T10:09:16;4.20;99.90
28947;DHT22;16052;50.930;5.326;2023-03-03T10:11:52;4.20;99.90
28947;DHT22;16052;50.930;5.326;2023-03-03T10:28:45;4.30;98.80
28947;DHT22;16052;50.930;5.326;2023-03-03T10:31:34;4.40;99.90
28947;DHT22;16052;50.930;5.326;2023-03-03T10:40:23;4.60;97.80
28947;DHT22;16052;50.930;5.326;2023-03-03T10:43:13;4.70;97.30
28947;DHT22;16052;50.930;5.326;2023-03-03T10:51:26;5.00;94.90
28947;DHT22;16052;50.930;5.326;2023-03-03T10:53:57;4.90;94.70
28947;DHT22;16052;50.930;5.326;2023-03-03T10:56:44;4.90;95.60
28947;DHT22;16052;50.930;5.326;2023-03-03T10:59:33;4.80;96.20
28947;DHT22;16052;50.930;5.326;2023-03-03T11:07:08;4.90;96.80
28947;DHT22;16052;50.930;5.326;2023-03-03T11:10:02;4.90;97.80
28947;DHT22;16052;50.930;5.326;2023-03-03T11:12:37;5.00;97.10
28947;DHT22;16052;50.930;5.326;2023-03-03T11:15:17;5.00;97.40
28947;DHT22;16052;50.930;5.326;2023-03-03T11:23:27;5.30;94.20
28947;DHT22;16052;50.930;5.326;2023-03-03T11:31:55;5.50;92.10
28947;DHT22;16052;50.930;5.326;2023-03-03T11:39:41;5.60;89.80
28947;DHT22;16052;50.930;5.326;2023-03-03T11:44:49;5.40;91.90
28947;DHT22;16052;50.930;5.326;2023-03-03T11:47:29;5.40;94.30
28947;DHT22;16052;50.930;5.326;2023-03-03T11:50:10;5.40;94.80
28947;DHT22;16052;50.930;5.326;2023-03-03T11:52:51;5.50;93.40
28947;DHT22;16052;50.930;5.326;2023-03-03T11:55:38;5.50;93.40
28947;DHT22;16052;50.930;5.326;2023-03-03T11:58:38;5.40;94.20
28947;DHT22;16052;50.930;5.326;2023-03-03T12:04:02;5.50;94.60
28947;DHT22;16052;50.930;5.326;2023-03-03T12:14:19;5.60;93.00
28947;DHT22;16052;50.930;5.326;2023-03-03T12:22:30;5.90;89.30
28947;DHT22;16052;50.930;5.326;2023-03-03T12:25:18;6.00;87.30
28947;DHT22;16052;50.930;5.326;2023-03-03T12:33:35;6.00;87.20
28947;DHT22;16052;50.930;5.326;2023-03-03T12:44:46;5.90;89.00
28947;DHT22;16052;50.930;5.326;2023-03-03T12:47:16;5.90;87.10
28947;DHT22;16052;50.930;5.326;2023-03-03T12:50:02;6.00;86.70
28947;DHT22;16052;50.930;5.326;2023-03-03T13:06:21;6.10;83.20
28947;DHT22;16052;50.930;5.326;2023-03-03T13:08:51;6.10;86.60
28947;DHT22;16052;50.930;5.326;2023-03-03T13:14:14;6.50;75.00
28947;DHT22;16052;50.930;5.326;2023-03-03T13:19:59;6.50;73.30
28947;DHT22;16052;50.930;5.326;2023-03-03T13:28:09;6.80;70.00
28947;DHT22;16052;50.930;5.326;2023-03-03T13:30:39;6.80;70.00
28947;DHT22;16052;50.930;5.326;2023-03-03T13:33:30;6.90;68.70
28947;DHT22;16052;50.930;5.326;2023-03-03T13:35:59;6.90;62.30
28947;DHT22;16052;50.930;5.326;2023-03-03T13:38:56;6.90;62.80
28947;DHT22;16052;50.930;5.326;2023-03-03T13:41:34;6.80;63.80
28947;DHT22;16052;50.930;5.326;2023-03-03T13:47:25;7.10;71.40
28947;DHT22;16052;50.930;5.326;2023-03-03T13:52:42;7.50;57.80
28947;DHT22;16052;50.930;5.326;2023-03-03T13:55:32;7.50;56.20
28947;DHT22;16052;50.930;5.326;2023-03-03T13:58:00;7.60;56.80
28947;DHT22;16052;50.930;5.326;2023-03-03T14:01:03;7.90;55.30
28947;DHT22;16052;50.930;5.326;2023-03-03T14:06:16;8.40;38.60
28947;DHT22;16052;50.930;5.326;2023-03-03T14:11:39;8.70;37.90
28947;DHT22;16052;50.930;5.326;2023-03-03T14:17:02;9.20;28.20
28947;DHT22;16052;50.930;5.326;2023-03-03T14:19:43;9.30;18.10
28947;DHT22;16052;50.930;5.326;2023-03-03T14:25:11;9.60;25.20
28947;DHT22;16052;50.930;5.326;2023-03-03T14:33:13;9.80;17.80
28947;DHT22;16052;50.930;5.326;2023-03-03T14:35:43;10.00;16.60
28947;DHT22;16052;50.930;5.326;2023-03-03T14:38:18;10.00;13.50
28947;DHT22;16052;50.930;5.326;2023-03-03T14:40:46;10.10;11.80
28947;DHT22;16052;50.930;5.326;2023-03-03T14:43:25;10.20;7.30
28947;DHT22;16052;50.930;5.326;2023-03-03T14:45:54;10.30;5.80
28947;DHT22;16052;50.930;5.326;2023-03-03T14:48:22;10.50;1.50
28947;DHT22;16052;50.930;5.326;2023-03-03T14:53:20;10.70;1.00
28947;DHT22;16052;50.930;5.326;2023-03-03T14:55:49;10.80;1.00
28947;DHT22;16052;50.930;5.326;2023-03-03T14:58:25;10.90;1.00
28947;DHT22;16052;50.930;5.326;2023-03-03T15:01:12;11.10;1.00
28947;DHT22;16052;50.930;5.326;2023-03-03T15:03:45;11.00;1.00
28947;DHT22;16052;50.930;5.326;2023-03-03T15:06:28;11.00;1.00
28947;DHT22;16052;50.930;5.326;2023-03-03T15:08:54;11.00;1.00
28947;DHT22;16052;50.930;5.326;2023-03-03T15:11:29;11.00;1.00
28947;DHT22;16052;50.930;5.326;2023-03-03T15:14:13;10.90;1.00
28947;DHT22;16052;50.930;5.326;2023-03-03T15:16:39;11.10;1.00
28947;DHT22;16052;50.930;5.326;2023-03-03T15:19:47;11.10;1.00
28947;DHT22;16052;50.930;5.326;2023-03-03T15:25:03;11.10;1.00
28947;DHT22;16052;50.930;5.326;2023-03-03T15:27:46;11.20;1.00
28947;DHT22;16052;50.930;5.326;2023-03-03T15:30:19;11.30;1.00
28947;DHT22;16052;50.930;5.326;2023-03-03T15:35:56;11.20;1.00
28947;DHT22;16052;50.930;5.326;2023-03-03T15:41:36;11.30;1.00
28947;DHT22;16052;50.930;5.326;2023-03-03T15:47:09;11.20;1.00
28947;DHT22;16052;50.930;5.326;2023-03-03T15:52:30;11.20;1.00
28947;DHT22;16052;50.930;5.326;2023-03-03T15:55:31;11.30;1.00
28947;DHT22;16052;50.930;5.326;2023-03-03T15:58:35;11.40;1.00
28947;DHT22;16052;50.930;5.326;2023-03-03T16:03:43;11.20;1.00
28947;DHT22;16052;50.930;5.326;2023-03-03T16:06:20;11.20;1.00
28947;DHT22;16052;50.930;5.326;2023-03-03T16:09:06;11.30;1.00
28947;DHT22;16052;50.930;5.326;2023-03-03T16:11:38;11.30;1.00
28947;DHT22;16052;50.930;5.326;2023-03-03T16:20:22;11.30;1.00
28947;DHT22;16052;50.930;5.326;2023-03-03T16:25:57;11.20;1.00
28947;DHT22;16052;50.930;5.326;2023-03-03T16:31:28;11.10;1.00
28947;DHT22;16052;50.930;5.326;2023-03-03T16:36:44;11.10;1.00
28947;DHT22;16052;50.930;5.326;2023-03-03T17:04:14;10.30;1.00
28947;DHT22;16052;50.930;5.326;2023-03-03T17:12:42;10.40;1.00
28947;DHT22;16052;50.930;5.326;2023-03-03T17:15:19;10.40;1.00
28947;DHT22;16052;50.930;5.326;2023-03-03T17:20:58;10.00;2.90
28947;DHT22;16052;50.930;5.326;2023-03-03T17:36:54;9.80;11.20
28947;DHT22;16052;50.930;5.326;2023-03-03T17:44:57;10.00;5.50
28947;DHT22;16052;50.930;5.326;2023-03-03T17:51:04;9.70;6.80
28947;DHT22;16052;50.930;5.326;2023-03-03T17:56:15;8.80;18.40
28947;DHT22;16052;50.930;5.326;2023-03-03T18:04:10;7.70;42.50
28947;DHT22;16052;50.930;5.326;2023-03-03T18:09:59;6.70;66.10
28947;DHT22;16052;50.930;5.326;2023-03-03T18:23:40;6.50;71.50
28947;DHT22;16052;50.930;5.326;2023-03-03T18:26:34;6.10;84.90
28947;DHT22;16052;50.930;5.326;2023-03-03T18:32:03;6.10;86.90
28947;DHT22;16052;50.930;5.326;2023-03-03T18:34:41;6.30;80.00
28947;DHT22;16052;50.930;5.326;2023-03-03T18:37:11;6.60;71.00
28947;DHT22;16052;50.930;5.326;2023-03-03T18:42:39;6.50;72.70
28947;DHT22;16052;50.930;5.326;2023-03-03T18:48:03;6.40;71.70
28947;DHT22;16052;50.930;5.326;2023-03-03T18:50:39;6.10;77.40
28947;DHT22;16052;50.930;5.326;2023-03-03T18:53:19;6.10;80.10
28947;DHT22;16052;50.930;5.326;2023-03-03T18:55:48;5.90;89.20
28947;DHT22;16052;50.930;5.326;2023-03-03T19:00:46;6.10;84.50
28947;DHT22;16052;50.930;5.326;2023-03-03T19:05:57;6.40;77.30
28947;DHT22;16052;50.930;5.326;2023-03-03T19:08:41;6.30;76.40
28947;DHT22;16052;50.930;5.326;2023-03-03T19:11:30;6.30;79.00
28947;DHT22;16052;50.930;5.326;2023-03-03T19:16:52;6.30;76.40
28947;DHT22;16052;50.930;5.326;2023-03-03T19:19:37;6.40;74.30
28947;DHT22;16052;50.930;5.326;2023-03-03T19:22:48;6.20;76.90
28947;DHT22;16052;50.930;5.326;2023-03-03T19:25:16;6.10;80.60
28947;DHT22;16052;50.930;5.326;2023-03-03T19:28:04;6.10;81.00
28947;DHT22;16052;50.930;5.326;2023-03-03T19:33:41;5.80;90.20
28947;DHT22;16052;50.930;5.326;2023-03-03T19:36:19;5.80;89.10
28947;DHT22;16052;50.930;5.326;2023-03-03T19:39:04;5.80;90.40
28947;DHT22;16052;50.930;5.326;2023-03-03T19:41:44;5.60;90.90
28947;DHT22;16052;50.930;5.326;2023-03-03T19:47:03;5.10;98.40
28947;DHT22;16052;50.930;5.326;2023-03-03T19:52:43;5.50;94.60
28947;DHT22;16052;50.930;5.326;2023-03-03T19:58:29;5.70;90.40
28947;DHT22;16052;50.930;5.326;2023-03-03T20:01:13;5.60;91.10
28947;DHT22;16052;50.930;5.326;2023-03-03T20:07:00;5.40;94.50
28947;DHT22;16052;50.930;5.326;2023-03-03T20:09:31;5.50;93.00
28947;DHT22;16052;50.930;5.326;2023-03-03T20:14:43;5.20;94.70
28947;DHT22;16052;50.930;5.326;2023-03-03T20:25:56;5.90;89.40
28947;DHT22;16052;50.930;5.326;2023-03-03T20:39:07;6.10;84.20
28947;DHT22;16052;50.930;5.326;2023-03-03T20:47:45;6.40;72.70
28947;DHT22;16052;50.930;5.326;2023-03-03T20:53:21;6.10;77.40
28947;DHT22;16052;50.930;5.326;2023-03-03T20:55:57;6.00;82.80
28947;DHT22;16052;50.930;5.326;2023-03-03T20:58:32;6.00;79.00
28947;DHT22;16052;50.930;5.326;2023-03-03T21:01:04;6.00;80.40
28947;DHT22;16052;50.930;5.326;2023-03-03T21:03:37;6.00;79.10
28947;DHT22;16052;50.930;5.326;2023-03-03T21:11:05;5.70;89.70
28947;DHT22;16052;50.930;5.326;2023-03-03T21:13:39;5.80;88.50
28947;DHT22;16052;50.930;5.326;2023-03-03T21:21:21;6.00;84.30
28947;DHT22;16052;50.930;5.326;2023-03-03T21:23:47;6.00;82.00
28947;DHT22;16052;50.930;5.326;2023-03-03T21:26:14;5.90;82.00
28947;DHT22;16052;50.930;5.326;2023-03-03T21:29:00;5.70;86.60
28947;DHT22;16052;50.930;5.326;2023-03-03T21:31:27;5.70;90.30
28947;DHT22;16052;50.930;5.326;2023-03-03T21:33:57;5.90;87.40
28947;DHT22;16052;50.930;5.326;2023-03-03T21:38:57;6.00;82.30
28947;DHT22;16052;50.930;5.326;2023-03-03T21:41:23;5.90;83.20
28947;DHT22;16052;50.930;5.326;2023-03-03T21:43:51;5.90;88.80
28947;DHT22;16052;50.930;5.326;2023-03-03T21:46:22;6.00;87.20
28947;DHT22;16052;50.930;5.326;2023-03-03T21:48:49;6.10;85.70
28947;DHT22;16052;50.930;5.326;2023-03-03T21:51:15;6.20;83.00
28947;DHT22;16052;50.930;5.326;2023-03-03T21:53:42;6.10;79.70
28947;DHT22;16052;50.930;5.326;2023-03-03T21:56:09;6.10;80.90
28947;DHT22;16052;50.930;5.326;2023-03-03T21:58:35;6.20;78.50
28947;DHT22;16052;50.930;5.326;2023-03-03T22:01:03;6.10;80.60
28947;DHT22;16052;50.930;5.326;2023-03-03T22:03:29;6.00;84.10
28947;DHT22;16052;50.930;5.326;2023-03-03T22:05:55;6.10;80.90
28947;DHT22;16052;50.930;5.326;2023-03-03T22:08:21;5.90;86.80
28947;DHT22;16052;50.930;5.326;2023-03-03T22:10:50;5.90;89.60
28947;DHT22;16052;50.930;5.326;2023-03-03T22:13:24;6.20;81.90
28947;DHT22;16052;50.930;5.326;2023-03-03T22:15:50;6.10;81.10
28947;DHT22;16052;50.930;5.326;2023-03-03T22:18:16;6.30;77.60
28947;DHT22;16052;50.930;5.326;2023-03-03T22:20:45;6.40;76.80
28947;DHT22;16052;50.930;5.326;2023-03-03T22:23:12;6.30;77.60
28947;DHT22;16052;50.930;5.326;2023-03-03T22:25:38;6.30;77.50
28947;DHT22;16052;50.930;5.326;2023-03-03T22:28:04;6.10;82.20